createdAt,value
2023-10-29T00:00:34.718Z,11.80
2023-10-29T00:03:36.570Z,12.00
2023-10-29T00:06:38.394Z,12.00
2023-10-29T00:09:40.165Z,12.00
2023-10-29T00:12:41.872Z,11.90
2023-10-29T00:15:43.613Z,12.00
2023-10-29T00:18:45.525Z,12.00
2023-10-29T00:21:47.252Z,12.10
2023-10-29T00:24:49.143Z,12.10
2023-10-29T00:27:52.205Z,12.10
2023-10-29T00:30:56.261Z,12.10
2023-10-29T00:33:58.278Z,12.10
2023-10-29T00:37:00.013Z,12.20
2023-10-29T00:40:02.260Z,12.20
2023-10-29T00:43:04.782Z,12.20
2023-10-29T00:46:09.112Z,12.30
2023-10-29T00:49:11.032Z,12.40
2023-10-29T00:52:14.533Z,12.40
2023-10-29T00:55:16.407Z,12.50
2023-10-29T00:58:20.633Z,12.50
2023-10-29T01:01:22.422Z,12.50
2023-10-29T01:04:24.461Z,12.50
2023-10-29T01:07:26.277Z,12.50
2023-10-29T01:10:28.012Z,12.60
2023-10-29T01:13:29.759Z,12.60
2023-10-29T01:16:31.549Z,12.70
2023-10-29T01:19:33.255Z,12.70
2023-10-29T01:22:35.112Z,12.90
2023-10-29T01:25:36.839Z,12.70
2023-10-29T01:28:38.622Z,12.80
2023-10-29T01:31:40.429Z,12.90
2023-10-29T01:34:42.564Z,13.00
2023-10-29T01:37:44.289Z,13.00
2023-10-29T01:40:49.421Z,13.00
2023-10-29T01:43:51.342Z,13.20
2023-10-29T01:46:53.064Z,13.20
2023-10-29T01:49:54.837Z,13.20
2023-10-29T01:52:56.545Z,13.10
2023-10-29T01:55:58.254Z,13.00
2023-10-29T01:59:00.000Z,13.00
2023-10-29T02:02:02.149Z,13.00
2023-10-29T02:05:07.136Z,13.20
2023-10-29T02:08:09.018Z,13.10
2023-10-29T02:11:10.781Z,13.20
2023-10-29T02:14:12.609Z,13.20
2023-10-29T02:17:14.529Z,13.20
2023-10-29T02:20:16.537Z,13.20
2023-10-29T02:23:18.266Z,13.30
2023-10-29T02:26:20.726Z,13.10
2023-10-29T02:29:22.463Z,13.30
2023-10-29T02:32:24.286Z,13.70
2023-10-29T02:35:26.094Z,13.30
2023-10-29T02:38:27.841Z,13.40
2023-10-29T02:41:29.750Z,13.30
2023-10-29T02:44:31.563Z,13.30
2023-10-29T02:47:33.386Z,13.30
2023-10-29T02:50:38.658Z,13.30
2023-10-29T02:53:40.759Z,13.40
2023-10-29T02:56:42.627Z,13.40
2023-10-29T02:59:44.481Z,13.30
2023-10-29T03:02:46.486Z,13.30
2023-10-29T03:05:56.792Z,13.20
2023-10-29T03:08:59.271Z,13.30
2023-10-29T03:12:01.905Z,13.40
2023-10-29T03:15:04.029Z,13.30
2023-10-29T03:25:08.405Z,13.30
2023-10-29T03:28:13.054Z,13.30
2023-10-29T03:31:16.011Z,13.20
2023-10-29T03:34:17.814Z,13.30
2023-10-29T03:37:19.606Z,13.20
2023-10-29T03:40:22.523Z,13.30
2023-10-29T03:43:24.541Z,13.30
2023-10-29T03:46:26.261Z,13.30
2023-10-29T03:49:28.077Z,13.30
2023-10-29T03:52:29.815Z,13.40
2023-10-29T03:55:33.866Z,13.40
2023-10-29T03:58:36.432Z,13.50
2023-10-29T04:01:38.269Z,13.50
2023-10-29T04:04:42.384Z,13.50
2023-10-29T04:07:45.745Z,13.40
2023-10-29T04:10:47.475Z,13.50
2023-10-29T04:13:49.327Z,13.50
2023-10-29T04:16:51.029Z,13.50
2023-10-29T04:19:52.811Z,13.50
2023-10-29T04:22:55.118Z,13.70
2023-10-29T04:25:56.832Z,13.70
2023-10-29T04:28:58.529Z,13.90
2023-10-29T04:32:00.248Z,13.70
2023-10-29T04:35:02.006Z,13.80
2023-10-29T04:38:03.707Z,13.80
2023-10-29T04:41:05.418Z,13.70
2023-10-29T04:44:07.159Z,13.70
2023-10-29T04:47:08.955Z,13.80
2023-10-29T04:50:10.790Z,13.80
2023-10-29T04:53:12.518Z,13.90
2023-10-29T04:59:38.236Z,13.70
2023-10-29T05:02:40.364Z,13.70
2023-10-29T05:05:42.359Z,13.70
2023-10-29T05:12:16.020Z,13.80
2023-10-29T05:22:26.675Z,13.80
2023-10-29T05:25:28.468Z,13.80
2023-10-29T05:28:30.294Z,13.80
2023-10-29T05:31:32.809Z,13.80
2023-10-29T05:34:34.863Z,13.70
2023-10-29T05:37:36.762Z,13.80
2023-10-29T05:40:38.641Z,13.70
2023-10-29T05:50:35.724Z,13.70
2023-10-29T05:53:39.323Z,13.80
2023-10-29T05:56:41.153Z,13.80
2023-10-29T05:59:43.236Z,13.70
2023-10-29T06:02:45.063Z,13.70
2023-10-29T06:05:46.873Z,13.60
2023-10-29T06:08:48.670Z,13.70
2023-10-29T06:11:50.904Z,13.80
2023-10-29T06:14:52.691Z,13.80
2023-10-29T06:17:55.745Z,13.80
2023-10-29T06:20:57.600Z,13.80
2023-10-29T06:27:29.769Z,14.00
2023-10-29T06:30:31.618Z,13.80
2023-10-29T06:33:33.566Z,14.10
2023-10-29T06:36:35.377Z,14.10
2023-10-29T06:39:37.064Z,14.20
2023-10-29T06:42:39.701Z,14.20
2023-10-29T06:45:41.453Z,14.10
2023-10-29T06:52:13.746Z,14.30
2023-10-29T06:55:15.548Z,14.30
2023-10-29T07:05:57.880Z,14.40
2023-10-29T07:23:30.804Z,14.40
2023-10-29T07:26:35.671Z,14.30
2023-10-29T07:29:38.693Z,14.30
2023-10-29T07:32:40.571Z,14.40
2023-10-29T07:53:44.810Z,14.20
2023-10-29T07:56:46.829Z,14.10
2023-10-29T07:59:48.600Z,14.20
2023-10-29T08:06:20.776Z,14.20
2023-10-29T08:09:23.112Z,14.40
2023-10-29T08:12:25.550Z,14.50
2023-10-29T08:19:06.238Z,14.60
2023-10-29T08:22:08.017Z,14.60
2023-10-29T08:28:47.746Z,14.70
2023-10-29T08:31:49.550Z,14.70
2023-10-29T08:34:51.386Z,14.80
2023-10-29T08:37:53.268Z,14.80
2023-10-29T08:40:55.035Z,14.80
2023-10-29T08:43:57.151Z,15.90
2023-10-29T08:53:59.553Z,14.50
2023-10-29T08:57:01.744Z,14.50
2023-10-29T09:00:04.429Z,14.40
2023-10-29T09:03:06.387Z,14.40
2023-10-29T09:06:08.563Z,14.30
2023-10-29T09:09:10.570Z,14.30
2023-10-29T09:19:21.220Z,14.20
2023-10-29T09:22:22.975Z,14.30
2023-10-29T09:32:26.960Z,14.30
2023-10-29T09:35:28.703Z,14.30
2023-10-29T09:38:30.408Z,14.60
2023-10-29T09:41:33.092Z,15.10
2023-10-29T09:44:35.740Z,15.50
2023-10-29T10:05:47.636Z,14.90
2023-10-29T10:26:32.288Z,15.00
2023-10-29T10:29:34.528Z,15.00
2023-10-29T10:32:36.298Z,14.90
2023-10-29T10:46:34.939Z,15.50
2023-10-29T10:49:37.561Z,15.30
2023-10-29T10:52:39.882Z,15.20
2023-10-29T10:56:01.568Z,15.10
2023-10-29T11:39:19.270Z,15.20
2023-10-29T11:42:28.223Z,15.20
2023-10-29T11:45:35.687Z,15.10
2023-10-29T11:49:03.833Z,15.10
2023-10-29T11:52:05.848Z,15.00
2023-10-29T11:55:10.821Z,15.00
2023-10-29T11:58:12.565Z,15.10
2023-10-29T12:04:48.424Z,15.10
2023-10-29T12:26:02.473Z,15.40
2023-10-29T12:29:04.499Z,15.60
2023-10-29T12:32:15.030Z,15.60
2023-10-29T12:35:35.296Z,15.70
2023-10-29T12:38:39.422Z,15.70
2023-10-29T13:06:24.977Z,15.30
2023-10-29T13:09:29.400Z,15.20
2023-10-29T13:12:31.150Z,15.10
2023-10-29T13:15:32.892Z,15.00
2023-10-29T13:18:34.775Z,14.90
2023-10-29T13:21:37.375Z,14.70
2023-10-29T13:28:10.051Z,14.50
2023-10-29T13:38:21.242Z,14.50
2023-10-29T14:02:21.858Z,14.30
2023-10-29T14:05:23.783Z,14.30
2023-10-29T14:08:25.503Z,14.30
2023-10-29T14:11:27.880Z,14.20
2023-10-29T14:21:31.894Z,14.10
2023-10-29T14:31:48.816Z,13.70
2023-10-29T14:48:54.773Z,13.20
2023-10-29T14:55:34.321Z,13.00
2023-10-29T14:58:36.168Z,13.00
2023-10-29T15:01:38.802Z,13.10
2023-10-29T15:11:59.477Z,13.00
2023-10-29T15:15:01.331Z,13.00
2023-10-29T15:18:03.244Z,13.00
2023-10-29T15:21:12.028Z,13.00
2023-10-29T15:24:14.946Z,13.00
2023-10-29T15:30:48.058Z,13.00
2023-10-29T15:33:49.857Z,13.00
2023-10-29T15:36:51.564Z,13.00
2023-10-29T16:02:15.827Z,13.50
2023-10-29T16:05:18.035Z,13.50
2023-10-29T16:08:19.773Z,13.50
2023-10-29T16:15:26.290Z,13.60
2023-10-29T16:18:31.862Z,13.70
2023-10-29T16:28:35.750Z,13.80
2023-10-29T16:31:37.462Z,14.80
2023-10-29T16:55:38.409Z,13.80
2023-10-29T17:02:11.002Z,13.70
2023-10-29T17:08:45.314Z,13.60
2023-10-29T17:11:48.644Z,13.70
2023-10-29T17:18:20.831Z,13.50
2023-10-29T17:28:37.770Z,13.60
2023-10-29T17:31:39.484Z,13.60
2023-10-29T17:34:41.424Z,13.60
2023-10-29T17:37:43.182Z,13.50
2023-10-29T17:40:44.902Z,13.50
2023-10-29T17:43:47.370Z,13.50
2023-10-29T17:46:49.082Z,13.40
2023-10-29T17:56:34.272Z,13.50
2023-10-29T17:59:37.618Z,13.40
2023-10-29T18:17:11.785Z,13.50
2023-10-29T18:20:13.536Z,13.30
2023-10-29T18:23:15.610Z,13.30
2023-10-29T18:36:50.252Z,13.30
2023-10-29T18:39:52.373Z,13.30
2023-10-29T18:42:54.305Z,13.30
2023-10-29T18:45:56.067Z,13.40
2023-10-29T18:48:57.871Z,13.40
2023-10-29T18:52:00.010Z,13.30
2023-10-29T18:55:02.029Z,13.30
2023-10-29T18:58:03.961Z,13.30
2023-10-29T19:04:29.848Z,13.40
2023-10-29T19:11:10.207Z,13.50
2023-10-29T19:21:11.353Z,13.40
2023-10-29T19:24:13.199Z,13.40
2023-10-29T19:31:04.784Z,13.40
2023-10-29T19:34:08.830Z,13.40
2023-10-29T19:37:10.640Z,13.40
2023-10-29T19:43:49.779Z,13.40
2023-10-29T19:46:51.532Z,13.50
2023-10-29T19:49:53.338Z,13.50
2023-10-29T19:52:55.049Z,13.50
2023-10-29T19:55:57.169Z,13.60
2023-10-29T19:59:00.964Z,13.60
2023-10-29T20:02:02.872Z,13.60
2023-10-29T20:05:06.090Z,13.60
2023-10-29T20:08:08.290Z,13.70
2023-10-29T20:11:14.569Z,13.70
2023-10-29T20:14:16.399Z,13.70
2023-10-29T20:17:18.210Z,13.70
2023-10-29T20:20:20.003Z,13.70
2023-10-29T20:23:21.782Z,13.70
2023-10-29T20:33:26.107Z,13.50
2023-10-29T20:36:28.935Z,13.40
2023-10-29T20:39:30.815Z,13.50
2023-10-29T20:42:32.703Z,13.40
2023-10-29T20:45:34.496Z,13.40
2023-10-29T20:48:37.389Z,13.30
2023-10-29T20:58:33.461Z,13.30
2023-10-29T21:01:35.211Z,13.20
2023-10-29T21:08:07.784Z,13.10
2023-10-29T21:11:11.490Z,13.20
2023-10-29T21:14:13.429Z,13.10
2023-10-29T21:17:15.135Z,13.00
2023-10-29T21:23:47.783Z,12.90
2023-10-29T21:26:50.096Z,13.00
2023-10-29T21:29:53.429Z,12.90
2023-10-29T21:32:55.199Z,12.90
2023-10-29T21:35:56.958Z,12.90
2023-10-29T21:42:46.439Z,12.70
2023-10-29T21:45:48.392Z,12.70
2023-10-29T21:48:50.656Z,12.70
2023-10-29T21:55:22.842Z,12.60
2023-10-29T22:02:01.796Z,12.60
2023-10-29T22:05:03.644Z,12.60
2023-10-29T22:08:05.674Z,12.60
2023-10-29T22:11:08.428Z,12.60
2023-10-29T22:14:10.178Z,12.60
2023-10-29T22:17:15.278Z,12.50
2023-10-29T22:20:17.121Z,12.50
2023-10-29T22:23:18.906Z,12.50
2023-10-29T22:26:20.717Z,12.60
2023-10-29T22:29:22.481Z,12.60
2023-10-29T22:32:24.279Z,12.70
2023-10-29T22:35:26.013Z,12.70
2023-10-29T22:38:28.783Z,12.70
2023-10-29T22:41:31.408Z,12.60
2023-10-29T22:44:33.523Z,12.60
2023-10-29T22:47:36.395Z,12.70
2023-10-29T22:50:38.122Z,12.60
2023-10-29T22:53:40.088Z,12.60
2023-10-29T22:56:41.859Z,12.50
2023-10-29T22:59:43.622Z,12.60
2023-10-29T23:02:45.544Z,12.60
2023-10-29T23:05:47.325Z,12.60
2023-10-29T23:08:49.287Z,12.60
2023-10-29T23:11:51.006Z,12.60
2023-10-29T23:14:52.933Z,12.60
2023-10-29T23:17:55.160Z,12.70
2023-10-29T23:20:56.977Z,12.60
2023-10-29T23:23:58.690Z,12.60
2023-10-29T23:27:00.478Z,12.60
2023-10-29T23:30:04.365Z,12.50
2023-10-29T23:33:08.624Z,12.60
2023-10-29T23:39:41.122Z,12.50
2023-10-29T23:42:43.776Z,12.50
2023-10-29T23:45:45.544Z,12.50
2023-10-29T23:48:47.542Z,12.60
2023-10-29T23:51:49.529Z,12.50
2023-10-29T23:54:51.358Z,12.60
2023-10-29T23:57:53.144Z,12.50
